Time;durP1;ratioP1;P1;durP2;ratioP2;P2;SDS_P1;SDS_P2;PMS_P1;PMS_P2;Temp;Humidity;BMP_temperature;BMP_pressure;BME280_temperature;BME280_humidity;BME280_pressure;Samples;Min_cycle;Max_cycle;Signal;HPM_P1;HPM_P2
2023/03/18 00:01:37;;;;;;;7.30;4.40;;;;;;;;;;79849;260;3032073;-40
2023/03/18 00:04:13;;;;;;;7.00;4.60;;;;;;;;;;79854;260;3032289;-40
2023/03/18 00:06:49;;;;;;;7.10;4.40;;;;;;;;;;79822;260;3028378;-40
2023/03/18 00:09:35;;;;;;;7.60;4.50;;;;;;;;;;79844;260;3027816;-39
2023/03/18 00:12:13;;;;;;;7.70;4.80;;;;;;;;;;79813;249;3030684;-40
2023/03/18 00:14:51;;;;;;;7.20;4.50;;;;;;;;;;79823;260;3031679;-40
2023/03/18 00:17:27;;;;;;;6.20;4.00;;;;;;;;;;79816;260;3034161;-40
2023/03/18 00:20:05;;;;;;;7.60;4.60;;;;;;;;;;79832;260;3027192;-41
2023/03/18 00:22:44;;;;;;;7.20;4.60;;;;;;;;;;79835;260;3031588;-41
2023/03/18 00:25:23;;;;;;;7.00;4.50;;;;;;;;;;79855;260;3032440;-41
2023/03/18 00:27:59;;;;;;;7.30;4.40;;;;;;;;;;79849;260;3036776;-39
2023/03/18 00:30:37;;;;;;;6.80;4.20;;;;;;;;;;79837;260;3027759;-39
2023/03/18 00:33:16;;;;;;;7.60;4.40;;;;;;;;;;79853;260;3031572;-40
2023/03/18 00:35:53;;;;;;;6.90;4.20;;;;;;;;;;79811;260;3031635;-41
2023/03/18 00:38:32;;;;;;;7.40;4.40;;;;;;;;;;79808;260;3028401;-41
2023/03/18 00:41:15;;;;;;;6.60;4.00;;;;;;;;;;79845;260;3027232;-41
2023/03/18 00:43:55;;;;;;;7.30;4.50;;;;;;;;;;79826;260;3031349;-41
2023/03/18 00:46:37;;;;;;;6.50;3.90;;;;;;;;;;79810;260;3031395;-40
2023/03/18 00:49:17;;;;;;;6.40;4.00;;;;;;;;;;79826;260;3028065;-39
2023/03/18 00:51:55;;;;;;;6.50;4.20;;;;;;;;;;79829;260;3027661;-40
2023/03/18 00:54:34;;;;;;;6.80;4.10;;;;;;;;;;79837;260;3030616;-40
2023/03/18 00:57:11;;;;;;;6.50;4.10;;;;;;;;;;79821;260;3031589;-42
2023/03/18 00:59:53;;;;;;;6.30;3.80;;;;;;;;;;79846;260;3028335;-41
2023/03/18 01:02:31;;;;;;;6.30;4.10;;;;;;;;;;79821;260;3027988;-40
2023/03/18 01:05:11;;;;;;;6.30;3.80;;;;;;;;;;79850;260;3031215;-40
2023/03/18 01:07:48;;;;;;;7.10;4.00;;;;;;;;;;79802;260;3030950;-39
2023/03/18 01:10:29;;;;;;;6.30;3.90;;;;;;;;;;79833;260;3027995;-39
2023/03/18 01:13:04;;;;;;;6.40;4.10;;;;;;;;;;79858;260;3027282;-41
2023/03/18 01:15:42;;;;;;;6.80;3.90;;;;;;;;;;80615;260;3011460;-41
2023/03/18 01:18:19;;;;;;;6.10;3.90;;;;;;;;;;79786;260;3030587;-40
2023/03/18 01:20:57;;;;;;;5.70;3.40;;;;;;;;;;79855;260;3032036;-39
2023/03/18 01:23:32;;;;;;;6.00;3.80;;;;;;;;;;79872;260;3028460;-40
2023/03/18 01:26:10;;;;;;;6.30;3.90;;;;;;;;;;80578;260;3011533;-42
2023/03/18 01:28:46;;;;;;;6.20;3.60;;;;;;;;;;79815;260;3027490;-40
2023/03/18 01:31:24;;;;;;;7.50;3.70;;;;;;;;;;79836;260;3031028;-40
2023/03/18 01:33:59;;;;;;;5.40;3.50;;;;;;;;;;79855;260;3031983;-39
2023/03/18 01:36:37;;;;;;;6.60;3.80;;;;;;;;;;80565;260;3011136;-40
2023/03/18 01:39:13;;;;;;;6.20;3.70;;;;;;;;;;79814;260;3028363;-41
2023/03/18 01:41:50;;;;;;;6.00;3.60;;;;;;;;;;79844;260;3028207;-40
2023/03/18 01:44:27;;;;;;;7.00;3.80;;;;;;;;;;79855;275;3031076;-40
2023/03/18 01:47:06;;;;;;;6.90;3.80;;;;;;;;;;79848;260;3032534;-41
2023/03/18 01:49:46;;;;;;;6.70;3.80;;;;;;;;;;79839;260;3035781;-39
2023/03/18 01:52:27;;;;;;;6.00;3.50;;;;;;;;;;79848;260;3027862;-39
2023/03/18 01:55:05;;;;;;;5.70;3.60;;;;;;;;;;79811;260;3032490;-40
2023/03/18 01:57:44;;;;;;;6.10;3.70;;;;;;;;;;79842;260;3032445;-39
2023/03/18 02:00:31;;;;;;;6.00;3.40;;;;;;;;;;79836;260;3028449;-39
2023/03/18 02:03:14;;;;;;;5.80;3.30;;;;;;;;;;79838;260;3027172;-41
2023/03/18 02:05:50;;;;;;;6.30;3.50;;;;;;;;;;79819;252;3030416;-40
2023/03/18 02:08:24;;;;;;;5.90;3.60;;;;;;;;;;79808;260;3032099;-39
2023/03/18 02:11:01;;;;;;;6.00;3.50;;;;;;;;;;80560;260;3011559;-39
2023/03/18 02:13:41;;;;;;;5.70;3.40;;;;;;;;;;80552;260;3011575;-39
2023/03/18 02:16:24;;;;;;;7.10;3.60;;;;;;;;;;79853;260;3028112;-39
2023/03/18 02:19:12;;;;;;;6.10;3.30;;;;;;;;;;79806;260;3027298;-40
2023/03/18 02:21:55;;;;;;;6.00;3.70;;;;;;;;;;79835;260;3030740;-40
2023/03/18 02:24:47;;;;;;;5.50;3.30;;;;;;;;;;79864;260;3031308;-39
2023/03/18 02:27:28;;;;;;;5.60;3.30;;;;;;;;;;79825;249;3028546;-41
2023/03/18 02:30:08;;;;;;;5.30;2.90;;;;;;;;;;79818;261;3027912;-39
2023/03/18 02:32:45;;;;;;;5.70;2.90;;;;;;;;;;79810;261;3030688;-40
2023/03/18 02:35:21;;;;;;;5.30;3.50;;;;;;;;;;79839;261;3031232;-40
2023/03/18 02:38:03;;;;;;;6.00;3.30;;;;;;;;;;79841;261;3029377;-40
2023/03/18 02:40:43;;;;;;;5.80;3.40;;;;;;;;;;79839;260;3032550;-39
2023/03/18 02:43:27;;;;;;;5.00;3.00;;;;;;;;;;79811;261;3034182;-40
2023/03/18 02:46:27;;;;;;;5.80;3.00;;;;;;;;;;79841;261;3032623;-41
2023/03/18 02:49:06;;;;;;;5.60;3.10;;;;;;;;;;79766;261;3028474;-40
2023/03/18 02:51:43;;;;;;;5.70;3.10;;;;;;;;;;79838;261;3027264;-39
2023/03/18 02:54:24;;;;;;;5.00;3.20;;;;;;;;;;79857;260;3031210;-40
2023/03/18 02:57:02;;;;;;;5.80;3.20;;;;;;;;;;79856;261;3031374;-40
2023/03/18 02:59:40;;;;;;;5.90;3.50;;;;;;;;;;79806;261;3027910;-40
2023/03/18 03:02:19;;;;;;;5.80;3.20;;;;;;;;;;79794;261;3027764;-40
2023/03/18 03:04:55;;;;;;;5.60;3.20;;;;;;;;;;79813;261;3031434;-39
2023/03/18 03:07:32;;;;;;;5.10;3.00;;;;;;;;;;79827;261;3032238;-40
2023/03/18 03:10:11;;;;;;;5.70;3.30;;;;;;;;;;80511;261;3011559;-41
2023/03/18 03:12:47;;;;;;;5.10;3.10;;;;;;;;;;79841;261;3029054;-41
2023/03/18 03:15:26;;;;;;;5.50;3.10;;;;;;;;;;79838;261;3027309;-41
2023/03/18 03:18:02;;;;;;;5.30;3.00;;;;;;;;;;79852;280;3032019;-41
2023/03/18 03:20:41;;;;;;;5.60;3.00;;;;;;;;;;79809;261;3031215;-40
2023/03/18 03:23:17;;;;;;;5.40;3.30;;;;;;;;;;79843;261;3028030;-42
2023/03/18 03:25:57;;;;;;;5.00;2.70;;;;;;;;;;79857;261;3027284;-41
2023/03/18 03:28:33;;;;;;;4.60;2.70;;;;;;;;;;79830;260;3030921;-40
2023/03/18 03:31:11;;;;;;;5.30;2.80;;;;;;;;;;79829;260;3031843;-42
2023/03/18 03:33:46;;;;;;;5.20;2.90;;;;;;;;;;79850;260;3028507;-40
2023/03/18 03:36:24;;;;;;;4.80;2.80;;;;;;;;;;80540;260;3011541;-41
2023/03/18 03:38:58;;;;;;;5.50;3.00;;;;;;;;;;79808;260;3027231;-40
2023/03/18 03:41:36;;;;;;;5.40;2.90;;;;;;;;;;79833;260;3031233;-41
2023/03/18 03:44:14;;;;;;;5.50;2.80;;;;;;;;;;79821;260;3031250;-42
2023/03/18 03:46:50;;;;;;;5.20;3.00;;;;;;;;;;79854;260;3028112;-40
2023/03/18 03:49:28;;;;;;;5.20;2.50;;;;;;;;;;79829;260;3027729;-41
2023/03/18 03:52:07;;;;;;;5.20;2.80;;;;;;;;;;79810;260;3038393;-41
2023/03/18 03:54:44;;;;;;;5.60;2.60;;;;;;;;;;79878;260;3032058;-42
2023/03/18 03:57:21;;;;;;;4.70;2.60;;;;;;;;;;79858;260;3028036;-41
2023/03/18 03:59:57;;;;;;;5.50;2.50;;;;;;;;;;79845;260;3027162;-41
2023/03/18 04:02:36;;;;;;;5.10;2.60;;;;;;;;;;79835;260;3038167;-41
2023/03/18 04:05:15;;;;;;;5.00;2.60;;;;;;;;;;79865;260;3031837;-40
2023/03/18 04:07:54;;;;;;;4.70;2.60;;;;;;;;;;79841;260;3028415;-41
2023/03/18 04:10:33;;;;;;;4.60;2.60;;;;;;;;;;79801;260;3027454;-41
2023/03/18 04:13:12;;;;;;;4.70;2.30;;;;;;;;;;79802;260;3031263;-40
2023/03/18 04:15:52;;;;;;;4.60;2.40;;;;;;;;;;79839;260;3031924;-40
2023/03/18 04:18:29;;;;;;;5.30;2.80;;;;;;;;;;79827;260;3028374;-41
2023/03/18 04:21:08;;;;;;;5.10;2.70;;;;;;;;;;80517;260;3011392;-41
2023/03/18 04:23:46;;;;;;;5.40;2.70;;;;;;;;;;79839;260;3027115;-41
2023/03/18 04:26:22;;;;;;;4.90;2.70;;;;;;;;;;79833;260;3030955;-40
2023/03/18 04:29:02;;;;;;;5.10;2.60;;;;;;;;;;79830;260;3031616;-40
2023/03/18 04:31:42;;;;;;;5.20;2.80;;;;;;;;;;79808;260;3028668;-40
2023/03/18 04:34:24;;;;;;;4.60;2.40;;;;;;;;;;79868;260;3027668;-40
2023/03/18 04:37:03;;;;;;;4.70;2.30;;;;;;;;;;79828;260;3031220;-40
2023/03/18 04:39:44;;;;;;;5.20;2.40;;;;;;;;;;79834;260;3031162;-40
2023/03/18 04:42:22;;;;;;;5.00;2.40;;;;;;;;;;79847;256;3028591;-41
2023/03/18 04:45:01;;;;;;;4.40;2.40;;;;;;;;;;79839;260;3027208;-41
2023/03/18 04:47:40;;;;;;;5.00;2.70;;;;;;;;;;79838;260;3031196;-41
2023/03/18 04:50:20;;;;;;;4.40;2.30;;;;;;;;;;79843;260;3032457;-40
2023/03/18 04:52:57;;;;;;;4.80;2.50;;;;;;;;;;79798;260;3028548;-40
2023/03/18 04:55:37;;;;;;;4.60;2.40;;;;;;;;;;79856;259;3027374;-40
2023/03/18 04:58:13;;;;;;;4.70;2.50;;;;;;;;;;79822;260;3030759;-39
2023/03/18 05:00:51;;;;;;;4.70;2.20;;;;;;;;;;79825;260;3032374;-40
2023/03/18 05:03:33;;;;;;;4.80;2.50;;;;;;;;;;79812;260;3027772;-40
2023/03/18 05:06:21;;;;;;;4.90;2.50;;;;;;;;;;79859;260;3027714;-40
2023/03/18 05:08:57;;;;;;;4.50;2.20;;;;;;;;;;79848;260;3031276;-40
2023/03/18 05:11:34;;;;;;;4.90;2.40;;;;;;;;;;79792;260;3031249;-41
2023/03/18 05:14:11;;;;;;;4.50;2.30;;;;;;;;;;79843;260;3034653;-40
2023/03/18 05:16:49;;;;;;;4.60;2.20;;;;;;;;;;79850;260;3027172;-40
2023/03/18 05:19:27;;;;;;;5.20;2.50;;;;;;;;;;79861;260;3031144;-41
2023/03/18 05:22:04;;;;;;;5.00;2.40;;;;;;;;;;79858;260;3031992;-41
2023/03/18 05:24:42;;;;;;;4.50;2.40;;;;;;;;;;79859;260;3028845;-42
2023/03/18 05:27:22;;;;;;;4.30;2.10;;;;;;;;;;79848;261;3027232;-39
2023/03/18 05:30:01;;;;;;;4.30;2.10;;;;;;;;;;79807;261;3031175;-39
2023/03/18 05:32:40;;;;;;;4.40;2.00;;;;;;;;;;79671;262;3031361;-41
2023/03/18 05:35:17;;;;;;;4.70;2.40;;;;;;;;;;79823;261;3027893;-40
2023/03/18 05:37:59;;;;;;;4.40;2.10;;;;;;;;;;79847;261;3028083;-40
2023/03/18 05:40:35;;;;;;;4.90;2.10;;;;;;;;;;79831;261;3030810;-41
2023/03/18 05:43:14;;;;;;;4.40;2.10;;;;;;;;;;79805;260;3031054;-39
2023/03/18 05:45:51;;;;;;;4.50;2.10;;;;;;;;;;79816;261;3028653;-39
2023/03/18 05:48:28;;;;;;;4.20;2.10;;;;;;;;;;79818;260;3027487;-40
2023/03/18 05:51:04;;;;;;;4.30;2.10;;;;;;;;;;79690;261;3031363;-42
2023/03/18 05:53:43;;;;;;;4.60;2.20;;;;;;;;;;79802;261;3031882;-41
2023/03/18 05:56:21;;;;;;;4.50;1.90;;;;;;;;;;79802;261;3028427;-40
2023/03/18 05:58:59;;;;;;;4.60;2.00;;;;;;;;;;79819;261;3027498;-39
2023/03/18 06:01:38;;;;;;;4.10;1.90;;;;;;;;;;79820;261;3030841;-40
2023/03/18 06:04:18;;;;;;;4.30;2.30;;;;;;;;;;79798;261;3031628;-39
2023/03/18 06:06:53;;;;;;;4.30;2.00;;;;;;;;;;79814;261;3028076;-40
2023/03/18 06:09:33;;;;;;;4.10;1.90;;;;;;;;;;79825;261;3029055;-40
2023/03/18 06:12:10;;;;;;;3.90;1.90;;;;;;;;;;79831;261;3031086;-40
2023/03/18 06:14:51;;;;;;;4.40;2.10;;;;;;;;;;79814;260;3032058;-39
2023/03/18 06:17:28;;;;;;;4.20;2.10;;;;;;;;;;79816;261;3028197;-39
2023/03/18 06:20:08;;;;;;;4.00;2.00;;;;;;;;;;79818;261;3027439;-40
2023/03/18 06:22:48;;;;;;;4.20;2.10;;;;;;;;;;79845;261;3030780;-40
2023/03/18 06:25:25;;;;;;;4.60;1.90;;;;;;;;;;79789;260;3031840;-42
2023/03/18 06:28:03;;;;;;;4.00;2.00;;;;;;;;;;79853;260;3028215;-39
2023/03/18 06:30:40;;;;;;;4.40;2.00;;;;;;;;;;79846;260;3028015;-40
2023/03/18 06:33:17;;;;;;;4.20;2.00;;;;;;;;;;79866;260;3031273;-40
2023/03/18 06:35:53;;;;;;;4.70;2.10;;;;;;;;;;78947;260;3031275;-42
2023/03/18 06:38:30;;;;;;;4.80;2.10;;;;;;;;;;79766;260;3028221;-39
2023/03/18 06:41:09;;;;;;;5.00;2.00;;;;;;;;;;79859;260;3027919;-41
2023/03/18 06:43:46;;;;;;;4.60;2.20;;;;;;;;;;79814;260;3030763;-41
2023/03/18 06:46:22;;;;;;;4.40;2.00;;;;;;;;;;79839;261;3031903;-40
2023/03/18 06:48:57;;;;;;;4.30;2.10;;;;;;;;;;79828;260;3028474;-41
2023/03/18 06:51:33;;;;;;;4.80;2.40;;;;;;;;;;80570;260;3011570;-40
2023/03/18 06:54:09;;;;;;;4.30;1.90;;;;;;;;;;80535;260;3011555;-41
2023/03/18 06:56:45;;;;;;;4.90;2.10;;;;;;;;;;80543;260;3011879;-42
2023/03/18 06:59:22;;;;;;;4.00;2.10;;;;;;;;;;80568;260;3011613;-40
2023/03/18 07:01:56;;;;;;;4.30;1.70;;;;;;;;;;79856;260;3027872;-40
2023/03/18 07:04:33;;;;;;;4.10;2.00;;;;;;;;;;79821;260;3031260;-40
2023/03/18 07:07:10;;;;;;;4.00;1.80;;;;;;;;;;79822;260;3031759;-40
2023/03/18 07:09:46;;;;;;;4.40;1.90;;;;;;;;;;79840;260;3028497;-41
2023/03/18 07:12:21;;;;;;;4.80;1.80;;;;;;;;;;79861;260;3027040;-43
2023/03/18 07:14:57;;;;;;;4.80;2.00;;;;;;;;;;80561;260;3013223;-42
2023/03/18 07:17:32;;;;;;;4.00;1.80;;;;;;;;;;80555;260;3011322;-40
2023/03/18 07:20:18;;;;;;;3.90;1.70;;;;;;;;;;80587;260;3011558;-40
2023/03/18 07:22:52;;;;;;;3.90;1.80;;;;;;;;;;79862;260;3030930;-41
2023/03/18 07:25:30;;;;;;;4.10;1.80;;;;;;;;;;80550;260;3011555;-41
2023/03/18 07:28:05;;;;;;;4.40;1.80;;;;;;;;;;79852;260;3031887;-42
2023/03/18 07:30:41;;;;;;;3.80;1.70;;;;;;;;;;80549;260;3012747;-39
2023/03/18 07:33:19;;;;;;;4.10;1.80;;;;;;;;;;80561;260;3011500;-40
2023/03/18 07:35:55;;;;;;;4.40;1.90;;;;;;;;;;79798;260;3027902;-42
2023/03/18 07:38:30;;;;;;;4.90;1.90;;;;;;;;;;79848;260;3027427;-40
2023/03/18 07:41:07;;;;;;;3.80;1.80;;;;;;;;;;80567;260;3013019;-40
2023/03/18 07:43:42;;;;;;;4.30;1.90;;;;;;;;;;79862;260;3031788;-44
2023/03/18 07:46:18;;;;;;;4.90;2.00;;;;;;;;;;80524;260;3013159;-41
2023/03/18 07:48:54;;;;;;;4.60;2.40;;;;;;;;;;80565;260;3011392;-42
2023/03/18 07:51:31;;;;;;;5.10;1.90;;;;;;;;;;79852;260;3031253;-41
2023/03/18 07:54:07;;;;;;;4.10;1.80;;;;;;;;;;79870;260;3028617;-40
2023/03/18 07:56:41;;;;;;;4.70;1.90;;;;;;;;;;79844;260;3028825;-40
2023/03/18 07:59:19;;;;;;;4.00;1.90;;;;;;;;;;80560;260;3011545;-42
2023/03/18 08:01:56;;;;;;;4.80;2.00;;;;;;;;;;79860;260;3031043;-41
2023/03/18 08:04:30;;;;;;;4.60;1.90;;;;;;;;;;79822;260;3031461;-41
2023/03/18 08:07:07;;;;;;;4.30;1.90;;;;;;;;;;80509;248;3012033;-40
2023/03/18 08:09:47;;;;;;;4.40;1.90;;;;;;;;;;79838;260;3028352;-40
2023/03/18 08:12:28;;;;;;;4.80;1.80;;;;;;;;;;79886;260;3027339;-42
2023/03/18 08:15:20;;;;;;;4.40;1.90;;;;;;;;;;79860;260;3030949;-41
2023/03/18 08:17:57;;;;;;;4.30;1.80;;;;;;;;;;79824;260;3038559;-42
2023/03/18 08:20:33;;;;;;;4.00;1.80;;;;;;;;;;80588;259;3012565;-41
2023/03/18 08:23:10;;;;;;;4.30;1.80;;;;;;;;;;80440;260;3011224;-40
2023/03/18 08:25:49;;;;;;;4.30;2.00;;;;;;;;;;79812;260;3028324;-39
2023/03/18 08:28:26;;;;;;;4.60;2.20;;;;;;;;;;79816;260;3035266;-39
2023/03/18 08:31:04;;;;;;;4.90;2.20;;;;;;;;;;80570;260;3012634;-40
2023/03/18 08:33:40;;;;;;;5.80;2.20;;;;;;;;;;79831;260;3031043;-41
2023/03/18 08:36:15;;;;;;;4.40;1.90;;;;;;;;;;80490;260;3011403;-41
2023/03/18 08:38:52;;;;;;;4.60;2.10;;;;;;;;;;80560;260;3011781;-42
2023/03/18 08:41:27;;;;;;;4.80;2.10;;;;;;;;;;79820;260;3031393;-41
2023/03/18 08:44:06;;;;;;;4.70;2.20;;;;;;;;;;80561;260;3011539;-41
2023/03/18 08:46:41;;;;;;;5.90;2.50;;;;;;;;;;79812;261;3028646;-39
2023/03/18 08:49:18;;;;;;;4.90;2.00;;;;;;;;;;80552;260;3012005;-38
2023/03/18 08:51:53;;;;;;;4.70;2.10;;;;;;;;;;79783;260;3027378;-39
2023/03/18 08:54:28;;;;;;;5.30;2.10;;;;;;;;;;79818;260;3031492;-36
2023/03/18 08:57:04;;;;;;;4.70;2.00;;;;;;;;;;80505;260;3011321;-38
2023/03/18 08:59:44;;;;;;;6.60;2.60;;;;;;;;;;80592;260;3011686;-36
2023/03/18 09:02:22;;;;;;;4.60;2.10;;;;;;;;;;79806;260;3031245;-36
2023/03/18 09:04:58;;;;;;;4.90;2.40;;;;;;;;;;79825;260;3028117;-39
2023/03/18 09:07:35;;;;;;;4.80;2.40;;;;;;;;;;79783;260;3027913;-38
2023/03/18 09:10:18;;;;;;;4.30;2.30;;;;;;;;;;80584;260;3011589;-39
2023/03/18 09:12:56;;;;;;;4.40;2.10;;;;;;;;;;79812;261;3031154;-37
2023/03/18 09:15:32;;;;;;;5.30;2.50;;;;;;;;;;79840;260;3031969;-39
2023/03/18 09:18:10;;;;;;;4.90;2.20;;;;;;;;;;80528;260;3012484;-36
2023/03/18 09:20:53;;;;;;;5.20;2.20;;;;;;;;;;79819;261;3028489;-38
2023/03/18 09:23:29;;;;;;;5.80;2.50;;;;;;;;;;79825;260;3027045;-35
2023/03/18 09:26:07;;;;;;;5.20;2.10;;;;;;;;;;80553;260;3011450;-36
2023/03/18 09:28:45;;;;;;;4.50;2.10;;;;;;;;;;79784;260;3031925;-36
2023/03/18 09:31:23;;;;;;;4.90;2.30;;;;;;;;;;79814;260;3031851;-37
2023/03/18 09:34:04;;;;;;;4.40;1.80;;;;;;;;;;79819;260;3028477;-35
2023/03/18 09:36:48;;;;;;;11.20;2.70;;;;;;;;;;79822;260;3027205;-35
2023/03/18 09:39:24;;;;;;;4.50;2.20;;;;;;;;;;79823;260;3031359;-35
2023/03/18 09:42:19;;;;;;;4.90;2.30;;;;;;;;;;80011;260;3031342;-40
2023/03/18 09:45:00;;;;;;;5.90;2.30;;;;;;;;;;79811;261;3028081;-37
2023/03/18 09:48:02;;;;;;;5.60;2.10;;;;;;;;;;79813;261;3027334;-36
2023/03/18 09:50:46;;;;;;;5.20;2.30;;;;;;;;;;79720;261;3037059;-36
2023/03/18 09:53:30;;;;;;;5.30;2.10;;;;;;;;;;79811;261;3031933;-39
2023/03/18 09:56:07;;;;;;;4.60;1.90;;;;;;;;;;79831;261;3028489;-37
2023/03/18 09:58:52;;;;;;;4.60;2.10;;;;;;;;;;79788;260;3027914;-39
2023/03/18 10:01:29;;;;;;;4.30;2.00;;;;;;;;;;79721;261;3031193;-38
2023/03/18 10:04:10;;;;;;;4.60;2.10;;;;;;;;;;79708;261;3031369;-38
2023/03/18 10:06:50;;;;;;;4.60;2.10;;;;;;;;;;79677;261;3027786;-35
2023/03/18 10:09:30;;;;;;;4.70;1.90;;;;;;;;;;79682;316;3028225;-37
2023/03/18 10:12:16;;;;;;;5.40;2.20;;;;;;;;;;79727;261;3031168;-34
2023/03/18 10:15:03;;;;;;;4.60;2.00;;;;;;;;;;79790;261;3031244;-35
2023/03/18 10:17:45;;;;;;;4.80;2.20;;;;;;;;;;79784;261;3028165;-34
2023/03/18 10:20:30;;;;;;;4.50;2.10;;;;;;;;;;79718;261;3027961;-39
2023/03/18 10:23:27;;;;;;;4.70;2.10;;;;;;;;;;79779;261;3030855;-39
2023/03/18 10:26:12;;;;;;;6.20;2.20;;;;;;;;;;79758;261;3031523;-41
2023/03/18 10:29:05;;;;;;;6.00;2.30;;;;;;;;;;79741;261;3028103;-41
2023/03/18 10:32:06;;;;;;;5.40;2.50;;;;;;;;;;79852;261;3033915;-41
2023/03/18 10:34:55;;;;;;;5.00;2.00;;;;;;;;;;79814;261;3032014;-37
2023/03/18 10:37:48;;;;;;;5.40;2.00;;;;;;;;;;79754;261;3031740;-36
2023/03/18 10:40:25;;;;;;;6.10;2.30;;;;;;;;;;79825;261;3029686;-39
2023/03/18 10:43:00;;;;;;;5.90;2.10;;;;;;;;;;79808;261;3028055;-38
2023/03/18 10:45:38;;;;;;;6.20;2.30;;;;;;;;;;80562;260;3011439;-36
2023/03/18 10:48:23;;;;;;;5.70;2.20;;;;;;;;;;79713;261;3031217;-38
2023/03/18 10:51:16;;;;;;;5.80;2.40;;;;;;;;;;79805;261;3031535;-39
2023/03/18 10:53:59;;;;;;;5.40;2.10;;;;;;;;;;79849;261;3028650;-37
2023/03/18 10:56:34;;;;;;;6.20;2.10;;;;;;;;;;79848;261;3027858;-38
2023/03/18 10:59:18;;;;;;;4.40;2.20;;;;;;;;;;80588;261;3011530;-37
2023/03/18 11:01:59;;;;;;;5.60;2.20;;;;;;;;;;79767;261;3030751;-36
2023/03/18 11:04:45;;;;;;;5.70;2.30;;;;;;;;;;79831;260;3031496;-40
2023/03/18 11:07:25;;;;;;;5.70;2.20;;;;;;;;;;79826;261;3031666;-37
2023/03/18 11:10:22;;;;;;;5.40;2.20;;;;;;;;;;79798;260;3027926;-37
2023/03/18 11:13:05;;;;;;;6.00;2.30;;;;;;;;;;79905;260;3038936;-37
2023/03/18 11:15:47;;;;;;;5.20;2.40;;;;;;;;;;79821;260;3032496;-37
2023/03/18 11:18:26;;;;;;;5.30;2.20;;;;;;;;;;79857;261;3029433;-41
2023/03/18 11:21:05;;;;;;;5.80;2.30;;;;;;;;;;79818;261;3027333;-38
2023/03/18 11:23:47;;;;;;;5.20;2.50;;;;;;;;;;79846;261;3030714;-39
2023/03/18 11:26:30;;;;;;;5.60;2.20;;;;;;;;;;79817;261;3031238;-39
2023/03/18 11:29:14;;;;;;;4.90;2.30;;;;;;;;;;79850;261;3028182;-39
2023/03/18 11:31:56;;;;;;;5.90;2.40;;;;;;;;;;79840;261;3027416;-39
2023/03/18 11:34:34;;;;;;;4.80;2.10;;;;;;;;;;79864;261;3031101;-39
2023/03/18 11:37:13;;;;;;;5.00;2.20;;;;;;;;;;79850;261;3031193;-40
2023/03/18 11:39:49;;;;;;;5.10;2.30;;;;;;;;;;79874;261;3027976;-39
2023/03/18 11:42:35;;;;;;;6.20;3.80;;;;;;;;;;79831;261;3027361;-39
2023/03/18 11:45:31;;;;;;;15.40;13.80;;;;;;;;;;79852;261;3030450;-39
2023/03/18 11:48:15;;;;;;;16.10;13.80;;;;;;;;;;79834;261;3031254;-39
2023/03/18 11:51:16;;;;;;;15.10;13.50;;;;;;;;;;79796;261;3028699;-39
2023/03/18 11:54:20;;;;;;;11.40;9.70;;;;;;;;;;79834;261;3033201;-38
2023/03/18 11:57:02;;;;;;;12.10;9.80;;;;;;;;;;79889;261;3031353;-39
2023/03/18 11:59:51;;;;;;;10.50;9.10;;;;;;;;;;79849;261;3034713;-39
2023/03/18 12:02:56;;;;;;;12.00;10.60;;;;;;;;;;79802;261;3028321;-39
2023/03/18 12:05:59;;;;;;;11.70;10.10;;;;;;;;;;79816;261;3027363;-40
2023/03/18 12:08:49;;;;;;;13.80;10.90;;;;;;;;;;79820;261;3031091;-39
2023/03/18 12:11:41;;;;;;;11.30;9.30;;;;;;;;;;79816;261;3031913;-39
2023/03/18 12:14:27;;;;;;;11.40;9.20;;;;;;;;;;79791;261;3028609;-40
2023/03/18 12:17:24;;;;;;;9.80;8.00;;;;;;;;;;79772;261;3028560;-39
2023/03/18 12:20:15;;;;;;;10.20;7.50;;;;;;;;;;79788;265;3031192;-39
2023/03/18 12:23:13;;;;;;;9.30;6.80;;;;;;;;;;79764;285;3031943;-39
2023/03/18 12:26:04;;;;;;;9.70;6.70;;;;;;;;;;79804;261;3028581;-39
2023/03/18 12:29:18;;;;;;;9.10;6.90;;;;;;;;;;79799;261;3028284;-39
2023/03/18 12:32:09;;;;;;;7.40;5.80;;;;;;;;;;79789;261;3030514;-39
2023/03/18 12:35:05;;;;;;;8.30;5.80;;;;;;;;;;79788;261;3031803;-39
2023/03/18 12:37:51;;;;;;;8.30;5.70;;;;;;;;;;79829;261;3028334;-39
2023/03/18 12:40:41;;;;;;;7.30;5.40;;;;;;;;;;79798;261;3027378;-39
2023/03/18 12:43:46;;;;;;;8.20;5.30;;;;;;;;;;79779;261;3031089;-39
2023/03/18 12:46:29;;;;;;;8.20;5.20;;;;;;;;;;79856;261;3031230;-39
2023/03/18 12:49:14;;;;;;;7.70;5.10;;;;;;;;;;79837;261;3028400;-39
2023/03/18 12:51:58;;;;;;;7.40;5.00;;;;;;;;;;79825;261;3027262;-39
2023/03/18 12:54:38;;;;;;;7.20;4.60;;;;;;;;;;79743;261;3030897;-40
2023/03/18 12:57:33;;;;;;;6.90;4.30;;;;;;;;;;79796;261;3031941;-39
2023/03/18 13:00:18;;;;;;;7.00;4.40;;;;;;;;;;79792;261;3029774;-39
2023/03/18 13:03:02;;;;;;;6.90;4.70;;;;;;;;;;79782;261;3027982;-39
2023/03/18 13:05:46;;;;;;;6.70;4.00;;;;;;;;;;79744;261;3036166;-41
2023/03/18 13:08:44;;;;;;;6.10;3.90;;;;;;;;;;79803;261;3031053;-39
2023/03/18 13:11:45;;;;;;;7.20;4.00;;;;;;;;;;79796;261;3028626;-39
2023/03/18 13:14:28;;;;;;;6.40;4.10;;;;;;;;;;79736;261;3029468;-39
2023/03/18 13:17:05;;;;;;;7.00;4.10;;;;;;;;;;79785;261;3030632;-39
2023/03/18 13:19:42;;;;;;;5.90;3.50;;;;;;;;;;79793;261;3031737;-39
2023/03/18 13:22:45;;;;;;;6.00;3.40;;;;;;;;;;79799;261;3028842;-39
2023/03/18 13:25:32;;;;;;;6.80;3.70;;;;;;;;;;79766;261;3027712;-39
2023/03/18 13:28:38;;;;;;;6.80;3.80;;;;;;;;;;79762;261;3030671;-39
2023/03/18 13:31:27;;;;;;;7.80;3.90;;;;;;;;;;79785;261;3031766;-39
2023/03/18 13:34:31;;;;;;;6.80;3.80;;;;;;;;;;79753;261;3028278;-39
2023/03/18 13:37:32;;;;;;;6.50;3.70;;;;;;;;;;79776;261;3033309;-39
2023/03/18 13:40:37;;;;;;;6.80;3.60;;;;;;;;;;79784;261;3030629;-39
2023/03/18 13:43:19;;;;;;;7.20;3.60;;;;;;;;;;79791;261;3031649;-39
2023/03/18 13:45:55;;;;;;;6.00;3.40;;;;;;;;;;79790;261;3028271;-39
2023/03/18 13:48:33;;;;;;;5.50;3.20;;;;;;;;;;79816;261;3027423;-39
2023/03/18 13:51:44;;;;;;;6.00;3.30;;;;;;;;;;79790;261;3031165;-38
2023/03/18 13:54:21;;;;;;;6.10;3.60;;;;;;;;;;79769;265;3031931;-38
2023/03/18 13:56:56;;;;;;;5.60;3.40;;;;;;;;;;79747;261;3029693;-38
2023/03/18 13:59:47;;;;;;;6.20;3.60;;;;;;;;;;79820;261;3027703;-38
2023/03/18 14:02:42;;;;;;;5.50;3.40;;;;;;;;;;79807;261;3030672;-39
2023/03/18 14:05:40;;;;;;;5.80;3.40;;;;;;;;;;79738;261;3031074;-39
2023/03/18 14:08:47;;;;;;;6.30;3.50;;;;;;;;;;79801;261;3028550;-39
2023/03/18 14:11:50;;;;;;;7.20;3.30;;;;;;;;;;79768;261;3027563;-38
2023/03/18 14:15:08;;;;;;;6.10;3.30;;;;;;;;;;79758;261;3031358;-38
2023/03/18 14:17:49;;;;;;;5.60;3.20;;;;;;;;;;79900;261;3031402;-38
2023/03/18 14:20:40;;;;;;;6.00;3.50;;;;;;;;;;79771;261;3028769;-38
2023/03/18 14:23:34;;;;;;;5.90;3.50;;;;;;;;;;79744;259;3027661;-38
2023/03/18 14:26:19;;;;;;;6.30;3.30;;;;;;;;;;79727;261;3030902;-38
2023/03/18 14:29:02;;;;;;;5.60;3.40;;;;;;;;;;79731;261;3031380;-38
2023/03/18 14:31:57;;;;;;;6.20;3.60;;;;;;;;;;79762;261;3028225;-39
2023/03/18 14:34:36;;;;;;;6.20;3.50;;;;;;;;;;79788;261;3027302;-39
2023/03/18 14:37:26;;;;;;;5.50;3.20;;;;;;;;;;78919;261;3030455;-39
2023/03/18 14:40:11;;;;;;;5.60;3.30;;;;;;;;;;79753;261;3031341;-38
2023/03/18 14:42:55;;;;;;;6.00;3.30;;;;;;;;;;79760;261;3027986;-38
2023/03/18 14:45:36;;;;;;;6.00;3.40;;;;;;;;;;79745;261;3027081;-38
2023/03/18 14:48:20;;;;;;;6.20;3.30;;;;;;;;;;79779;261;3031287;-38
2023/03/18 14:50:59;;;;;;;6.10;3.20;;;;;;;;;;79752;261;3032552;-38
2023/03/18 14:53:38;;;;;;;6.00;3.40;;;;;;;;;;79749;261;3028437;-38
2023/03/18 14:56:22;;;;;;;5.40;3.40;;;;;;;;;;79765;261;3028207;-39
2023/03/18 14:59:02;;;;;;;5.50;3.40;;;;;;;;;;79761;261;3039011;-36
2023/03/18 15:01:49;;;;;;;5.50;2.90;;;;;;;;;;79855;261;3031727;-37
2023/03/18 15:04:27;;;;;;;5.60;3.10;;;;;;;;;;79785;259;3028557;-36
2023/03/18 15:07:06;;;;;;;5.90;3.00;;;;;;;;;;79793;260;3027779;-37
2023/03/18 15:09:45;;;;;;;5.70;3.20;;;;;;;;;;79835;260;3030668;-38
2023/03/18 15:12:29;;;;;;;5.80;3.40;;;;;;;;;;79807;315;3032013;-37
2023/03/18 15:15:05;;;;;;;6.40;3.30;;;;;;;;;;79817;260;3028438;-38
2023/03/18 15:17:41;;;;;;;5.70;3.30;;;;;;;;;;79793;260;3027180;-36
2023/03/18 15:20:22;;;;;;;6.10;3.10;;;;;;;;;;79830;261;3031326;-37
2023/03/18 15:22:57;;;;;;;5.30;3.10;;;;;;;;;;79808;260;3031409;-36
2023/03/18 15:25:34;;;;;;;6.40;3.70;;;;;;;;;;80601;260;3011446;-36
2023/03/18 15:28:20;;;;;;;6.00;3.20;;;;;;;;;;79795;260;3027995;-36
2023/03/18 15:30:57;;;;;;;5.30;3.20;;;;;;;;;;79810;260;3027734;-34
2023/03/18 15:33:38;;;;;;;5.40;3.30;;;;;;;;;;79817;260;3031335;-36
2023/03/18 15:36:18;;;;;;;5.80;3.60;;;;;;;;;;79850;260;3032102;-36
2023/03/18 15:38:55;;;;;;;5.30;3.30;;;;;;;;;;79796;260;3028374;-37
2023/03/18 15:41:33;;;;;;;5.10;3.10;;;;;;;;;;79815;260;3027508;-34
2023/03/18 15:44:19;;;;;;;5.60;3.40;;;;;;;;;;79842;260;3030955;-35
2023/03/18 15:46:55;;;;;;;6.70;3.70;;;;;;;;;;79816;260;3031874;-35
2023/03/18 15:49:30;;;;;;;5.70;3.30;;;;;;;;;;79769;260;3028396;-36
2023/03/18 15:52:13;;;;;;;5.60;3.20;;;;;;;;;;79829;260;3027964;-35